Time,TemperatureF,DewpointF,PressureIn,WindDirection,WindDirectionDegrees,WindSpeedMPH,WindSpeedGustMPH,Humidity,HourlyPrecipIn,Conditions,Clouds,dailyrainin,SoftwareType,DateUTC
2013-09-17 00:00:00,54.5,44.9,30.26,SW,225,0.7,1.6,62,0.00,,,0.00,fowsr,2013-09-17 05:00:00,
2013-09-17 00:12:00,54.0,44.7,30.26,South,180,0.7,1.6,63,0.00,,,0.00,fowsr,2013-09-17 05:12:00,
2013-09-17 00:15:00,54.3,44.7,30.26,South,180,0.7,1.6,62,0.00,,,0.00,fowsr,2013-09-17 05:15:00,
2013-09-17 00:27:00,53.6,44.4,30.26,West,270,0.0,0.7,63,0.00,,,0.00,fowsr,2013-09-17 05:27:00,
2013-09-17 00:30:00,54.0,44.7,30.26,South,180,0.7,1.6,63,0.00,,,0.00,fowsr,2013-09-17 05:30:00,
2013-09-17 00:42:00,53.2,44.6,30.26,South,180,0.7,2.2,65,0.00,,,0.00,fowsr,2013-09-17 05:42:00,
2013-09-17 00:45:00,53.6,44.4,30.25,SE,135,0.0,1.6,63,0.00,,,0.00,fowsr,2013-09-17 05:45:00,
2013-09-17 00:57:00,53.1,44.7,30.25,South,180,0.7,1.6,66,0.00,,,0.00,fowsr,2013-09-17 05:57:00,
2013-09-17 01:00:00,53.2,44.6,30.25,NW,315,0.7,1.6,65,0.00,,,0.00,fowsr,2013-09-17 06:00:00,
2013-09-17 01:12:00,52.7,44.4,30.25,South,180,0.7,1.6,66,0.00,,,0.00,fowsr,2013-09-17 06:12:00,
2013-09-17 01:15:00,52.9,44.6,30.26,South,180,0.7,1.6,66,0.00,,,0.00,fowsr,2013-09-17 06:15:00,
2013-09-17 01:27:00,52.3,44.4,30.25,SE,135,0.7,1.6,67,0.00,,,0.00,fowsr,2013-09-17 06:27:00,
2013-09-17 01:30:00,52.5,44.5,30.26,South,180,0.7,1.6,67,0.00,,,0.00,fowsr,2013-09-17 06:30:00,
2013-09-17 01:42:00,52.2,44.5,30.25,South,180,0.0,0.7,68,0.00,,,0.00,fowsr,2013-09-17 06:42:00,
2013-09-17 01:45:00,52.3,44.4,30.25,SE,135,0.0,1.6,67,0.00,,,0.00,fowsr,2013-09-17 06:45:00,
2013-09-17 01:57:00,52.2,44.8,30.25,SE,135,0.0,0.7,69,0.00,,,0.00,fowsr,2013-09-17 06:57:00,
2013-09-17 02:00:00,52.2,44.5,30.25,South,180,0.0,0.7,68,0.00,,,0.00,fowsr,2013-09-17 07:00:00,
2013-09-17 02:12:00,51.8,44.4,30.25,South,180,0.7,1.6,69,0.00,,,0.00,fowsr,2013-09-17 07:12:00,
2013-09-17 02:15:00,52.0,44.6,30.25,South,180,0.0,0.7,69,0.00,,,0.00,fowsr,2013-09-17 07:15:00,
2013-09-17 02:27:00,51.6,44.8,30.25,South,180,0.0,1.6,71,0.00,,,0.00,fowsr,2013-09-17 07:27:00,
2013-09-17 02:30:00,51.8,44.7,30.25,South,180,0.0,0.7,70,0.00,,,0.00,fowsr,2013-09-17 07:30:00,
2013-09-17 02:42:00,51.3,44.7,30.25,SE,135,0.0,0.0,72,0.00,,,0.00,fowsr,2013-09-17 07:42:00,
2013-09-17 02:45:00,51.6,44.8,30.25,SE,135,0.7,1.6,71,0.00,,,0.00,fowsr,2013-09-17 07:45:00,
2013-09-17 02:57:00,51.1,44.8,30.24,South,180,0.0,0.7,73,0.00,,,0.00,fowsr,2013-09-17 07:57:00,
2013-09-17 03:00:00,51.3,44.7,30.24,South,180,0.0,1.6,72,0.00,,,0.00,fowsr,2013-09-17 08:00:00,
2013-09-17 03:12:00,50.5,44.3,30.24,SE,135,0.0,0.0,73,0.00,,,0.00,fowsr,2013-09-17 08:12:00,
2013-09-17 03:15:00,50.9,44.7,30.24,South,180,0.0,1.6,73,0.00,,,0.00,fowsr,2013-09-17 08:15:00,
2013-09-17 03:27:00,50.4,44.1,30.24,SE,135,0.0,0.0,73,0.00,,,0.00,fowsr,2013-09-17 08:27:00,
2013-09-17 03:30:00,50.5,44.3,30.24,South,180,0.0,0.0,73,0.00,,,0.00,fowsr,2013-09-17 08:30:00,
2013-09-17 03:42:00,50.2,44.2,30.24,SE,135,0.0,0.7,74,0.00,,,0.00,fowsr,2013-09-17 08:42:00,
2013-09-17 03:45:00,50.4,44.4,30.24,SE,135,0.0,0.7,74,0.00,,,0.00,fowsr,2013-09-17 08:45:00,
2013-09-17 03:57:00,50.2,44.2,30.24,South,180,0.0,0.7,74,0.00,,,0.00,fowsr,2013-09-17 08:57:00,
2013-09-17 04:00:00,50.2,44.2,30.24,SE,135,0.0,0.7,74,0.00,,,0.00,fowsr,2013-09-17 09:00:00,
2013-09-17 04:12:00,50.2,44.2,30.23,SE,135,0.0,0.7,74,0.00,,,0.00,fowsr,2013-09-17 09:12:00,
2013-09-17 04:15:00,50.2,44.2,30.23,South,180,0.0,0.7,74,0.00,,,0.00,fowsr,2013-09-17 09:15:00,
2013-09-17 04:27:00,50.2,44.5,30.23,East,90,0.0,0.7,75,0.00,,,0.00,fowsr,2013-09-17 09:27:00,
2013-09-17 04:30:00,50.2,44.2,30.23,SW,225,0.7,2.2,74,0.00,,,0.00,fowsr,2013-09-17 09:30:00,
2013-09-17 04:42:00,50.2,44.5,30.23,South,180,1.6,1.6,75,0.00,,,0.00,fowsr,2013-09-17 09:42:00,
2013-09-17 04:45:00,50.0,44.3,30.23,SE,135,0.7,1.6,75,0.00,,,0.00,fowsr,2013-09-17 09:45:00,
2013-09-17 04:57:00,50.0,44.3,30.22,South,180,0.0,0.0,75,0.00,,,0.00,fowsr,2013-09-17 09:57:00,
2013-09-17 05:00:00,50.2,44.5,30.23,South,180,0.0,1.6,75,0.00,,,0.00,fowsr,2013-09-17 10:00:00,
2013-09-17 05:12:00,49.6,44.5,30.22,South,180,0.0,0.0,77,0.00,,,0.00,fowsr,2013-09-17 10:12:00,
2013-09-17 05:15:00,50.0,44.3,30.22,SE,135,0.0,0.0,75,0.00,,,0.00,fowsr,2013-09-17 10:15:00,
2013-09-17 05:27:00,49.5,44.6,30.22,East,90,0.0,1.6,78,0.00,,,0.00,fowsr,2013-09-17 10:27:00,
2013-09-17 05:30:00,49.6,44.5,30.22,SE,135,0.0,0.7,77,0.00,,,0.00,fowsr,2013-09-17 10:30:00,
2013-09-17 05:42:00,49.5,44.6,30.22,SE,135,0.0,0.7,78,0.00,,,0.00,fowsr,2013-09-17 10:42:00,
2013-09-17 05:45:00,49.5,44.6,30.22,SE,135,0.7,1.6,78,0.00,,,0.00,fowsr,2013-09-17 10:45:00,
2013-09-17 05:57:00,49.3,44.4,30.22,SW,225,0.0,0.0,78,0.00,,,0.00,fowsr,2013-09-17 10:57:00,
2013-09-17 06:00:00,49.5,44.6,30.21,South,180,0.0,1.6,78,0.00,,,0.00,fowsr,2013-09-17 11:00:00,
2013-09-17 06:12:00,49.5,44.8,30.21,South,180,0.0,1.6,79,0.00,,,0.00,fowsr,2013-09-17 11:12:00,
2013-09-17 06:15:00,49.3,44.6,30.21,SE,135,1.6,2.2,79,0.00,,,0.00,fowsr,2013-09-17 11:15:00,
2013-09-17 06:27:00,49.8,45.2,30.21,South,180,0.7,1.6,79,0.00,,,0.00,fowsr,2013-09-17 11:27:00,
2013-09-17 06:30:00,49.5,44.8,30.21,SE,135,0.0,1.6,79,0.00,,,0.00,fowsr,2013-09-17 11:30:00,
2013-09-17 06:42:00,50.0,45.3,30.21,SW,225,0.0,0.7,79,0.00,,,0.00,fowsr,2013-09-17 11:42:00,
2013-09-17 06:45:00,50.0,45.1,30.22,South,180,2.2,3.8,78,0.00,,,0.00,fowsr,2013-09-17 11:45:00,
2013-09-17 06:57:00,50.2,45.5,30.21,SW,225,1.6,2.2,79,0.00,,,0.00,fowsr,2013-09-17 11:57:00,
2013-09-17 07:00:00,50.0,45.3,30.21,SE,135,0.7,2.2,79,0.00,,,0.00,fowsr,2013-09-17 12:00:00,
2013-09-17 07:12:00,50.4,45.7,30.21,South,180,0.7,1.6,79,0.00,,,0.00,fowsr,2013-09-17 12:12:00,
2013-09-17 07:15:00,50.2,45.5,30.21,SE,135,1.6,3.1,79,0.00,,,0.00,fowsr,2013-09-17 12:15:00,
2013-09-17 07:27:00,50.9,46.2,30.21,SW,225,0.0,0.7,79,0.00,,,0.00,fowsr,2013-09-17 12:27:00,
2013-09-17 07:30:00,50.5,45.8,30.21,SW,225,0.7,2.2,79,0.00,,,0.00,fowsr,2013-09-17 12:30:00,
2013-09-17 07:42:00,51.1,46.4,30.20,SSW,202,0.7,2.2,79,0.00,,,0.00,fowsr,2013-09-17 12:42:00,
2013-09-17 07:45:00,50.9,46.2,30.21,South,180,2.2,4.5,79,0.00,,,0.00,fowsr,2013-09-17 12:45:00,
2013-09-17 07:57:00,51.3,46.5,30.20,WSW,247,2.2,3.1,79,0.00,,,0.00,fowsr,2013-09-17 12:57:00,
2013-09-17 08:00:00,51.1,46.4,30.20,West,270,1.6,3.1,79,0.00,,,0.00,fowsr,2013-09-17 13:00:00,
2013-09-17 08:12:00,51.3,46.5,30.19,South,180,1.6,3.8,79,0.00,,,0.00,fowsr,2013-09-17 13:12:00,
2013-09-17 08:15:00,51.3,46.5,30.20,NW,315,3.1,4.5,79,0.00,,,0.00,fowsr,2013-09-17 13:15:00,
2013-09-17 08:27:00,51.8,46.8,30.19,SW,225,1.6,3.1,78,0.00,,,0.00,fowsr,2013-09-17 13:27:00,
2013-09-17 08:30:00,51.3,46.5,30.19,East,90,0.7,2.2,79,0.00,,,0.00,fowsr,2013-09-17 13:30:00,
2013-09-17 08:42:00,52.7,47.4,30.19,SE,135,0.7,2.2,77,0.00,,,0.00,fowsr,2013-09-17 13:42:00,
2013-09-17 08:45:00,52.0,47.0,30.19,South,180,0.7,2.2,78,0.00,,,0.00,fowsr,2013-09-17 13:45:00,
2013-09-17 08:57:00,54.1,48.3,30.19,SSE,157,3.1,4.5,75,0.00,,,0.00,fowsr,2013-09-17 13:57:00,
2013-09-17 09:00:00,52.9,47.6,30.19,ESE,112,2.2,3.8,77,0.00,,,0.00,fowsr,2013-09-17 14:00:00,
2013-09-17 09:12:00,54.9,48.7,30.18,South,180,1.6,3.8,74,0.00,,,0.00,fowsr,2013-09-17 14:12:00,
2013-09-17 09:15:00,54.1,48.3,30.19,SE,135,1.6,3.1,75,0.00,,,0.00,fowsr,2013-09-17 14:15:00,
2013-09-17 09:27:00,55.6,49.4,30.18,SSE,157,1.6,3.1,74,0.00,,,0.00,fowsr,2013-09-17 14:27:00,
2013-09-17 09:30:00,54.9,48.7,30.18,SW,225,0.7,2.2,74,0.00,,,0.00,fowsr,2013-09-17 14:30:00,
2013-09-17 09:42:00,56.8,50.6,30.18,SW,225,3.8,5.4,74,0.00,,,0.00,fowsr,2013-09-17 14:42:00,
2013-09-17 09:45:00,55.8,49.6,30.18,SW,225,1.6,5.4,74,0.00,,,0.00,fowsr,2013-09-17 14:45:00,
2013-09-17 09:57:00,57.6,50.5,30.17,South,180,1.6,2.2,71,0.00,,,0.00,fowsr,2013-09-17 14:57:00,
2013-09-17 10:00:00,57.0,50.5,30.18,SE,135,1.6,3.1,73,0.00,,,0.00,fowsr,2013-09-17 15:00:00,
2013-09-17 10:12:00,58.5,51.0,30.17,SW,225,3.1,3.8,70,0.00,,,0.00,fowsr,2013-09-17 15:12:00,
2013-09-17 10:15:00,57.9,50.8,30.17,South,180,2.2,3.1,71,0.00,,,0.00,fowsr,2013-09-17 15:15:00,
2013-09-17 10:27:00,58.8,51.7,30.16,SE,135,0.7,2.2,71,0.00,,,0.00,fowsr,2013-09-17 15:27:00,
2013-09-17 10:30:00,58.5,51.0,30.17,SW,225,1.6,2.2,70,0.00,,,0.00,fowsr,2013-09-17 15:30:00,
2013-09-17 10:42:00,59.9,52.1,30.15,ESE,112,1.6,2.2,69,0.00,,,0.00,fowsr,2013-09-17 15:42:00,
2013-09-17 10:45:00,59.2,51.7,30.16,South,180,1.6,3.1,70,0.00,,,0.00,fowsr,2013-09-17 15:45:00,
2013-09-17 10:57:00,60.8,52.4,30.15,SW,225,2.2,3.8,67,0.00,,,0.00,fowsr,2013-09-17 15:57:00,
2013-09-17 11:00:00,60.1,52.3,30.15,East,90,1.6,3.8,69,0.00,,,0.00,fowsr,2013-09-17 16:00:00,
2013-09-17 11:12:00,61.5,53.0,30.14,SW,225,2.2,3.1,67,0.00,,,0.00,fowsr,2013-09-17 16:12:00,
2013-09-17 11:15:00,60.8,52.4,30.15,SE,135,1.6,3.1,67,0.00,,,0.00,fowsr,2013-09-17 16:15:00,
2013-09-17 11:27:00,62.6,53.4,30.14,SE,135,2.2,3.8,65,0.00,,,0.00,fowsr,2013-09-17 16:27:00,
2013-09-17 11:30:00,61.7,53.2,30.14,SE,135,2.2,3.8,67,0.00,,,0.00,fowsr,2013-09-17 16:30:00,
2013-09-17 11:42:00,63.9,54.3,30.13,SW,225,2.2,3.1,64,0.00,,,0.00,fowsr,2013-09-17 16:42:00,
2013-09-17 11:45:00,63.0,53.8,30.14,SE,135,1.6,3.8,65,0.00,,,0.00,fowsr,2013-09-17 16:45:00,
2013-09-17 11:57:00,64.8,55.5,30.13,South,180,4.5,6.9,65,0.00,,,0.00,fowsr,2013-09-17 16:57:00,
2013-09-17 12:00:00,64.0,54.5,30.13,SE,135,1.6,3.8,64,0.00,,,0.00,fowsr,2013-09-17 17:00:00,
2013-09-17 12:12:00,65.1,55.8,30.12,South,180,3.8,5.4,65,0.00,,,0.00,fowsr,2013-09-17 17:12:00,
2013-09-17 12:15:00,64.9,55.3,30.13,South,180,3.1,4.5,64,0.00,,,0.00,fowsr,2013-09-17 17:15:00,
2013-09-17 12:27:00,65.5,56.1,30.11,South,180,2.2,3.8,65,0.00,,,0.00,fowsr,2013-09-17 17:27:00,
2013-09-17 12:30:00,65.3,55.6,30.12,SSW,202,3.8,6.9,64,0.00,,,0.00,fowsr,2013-09-17 17:30:00,
2013-09-17 12:42:00,66.6,56.1,30.11,South,180,3.1,6.0,62,0.00,,,0.00,fowsr,2013-09-17 17:42:00,
2013-09-17 12:45:00,65.7,56.3,30.11,SE,135,2.2,3.8,65,0.00,,,0.00,fowsr,2013-09-17 17:45:00,
2013-09-17 12:57:00,66.2,55.5,30.11,SSW,202,5.4,6.0,61,0.00,,,0.00,fowsr,2013-09-17 17:57:00,
2013-09-17 13:00:00,66.6,55.8,30.11,SSW,202,4.5,6.9,61,0.00,,,0.00,fowsr,2013-09-17 18:00:00,
2013-09-17 13:12:00,65.8,55.8,30.10,SE,135,2.2,4.5,63,0.00,,,0.00,fowsr,2013-09-17 18:12:00,
2013-09-17 13:15:00,66.2,55.5,30.11,NW,315,3.8,6.0,61,0.00,,,0.00,fowsr,2013-09-17 18:15:00,
2013-09-17 13:27:00,65.5,55.8,30.10,South,180,1.6,3.1,64,0.00,,,0.00,fowsr,2013-09-17 18:27:00,
2013-09-17 13:30:00,65.8,55.8,30.10,SE,135,3.8,6.0,63,0.00,,,0.00,fowsr,2013-09-17 18:30:00,
2013-09-17 13:42:00,66.0,56.0,30.09,SE,135,3.8,6.9,63,0.00,,,0.00,fowsr,2013-09-17 18:42:00,
2013-09-17 13:45:00,65.7,56.0,30.09,SW,225,3.1,3.8,64,0.00,,,0.00,fowsr,2013-09-17 18:45:00,
2013-09-17 13:57:00,66.6,56.1,30.08,SE,135,2.2,3.1,62,0.00,,,0.00,fowsr,2013-09-17 18:57:00,
2013-09-17 14:00:00,66.2,55.8,30.08,South,180,3.1,5.4,62,0.00,,,0.00,fowsr,2013-09-17 19:00:00,
2013-09-17 14:12:00,66.4,55.6,30.07,SE,135,3.1,5.4,61,0.00,,,0.00,fowsr,2013-09-17 19:12:00,
2013-09-17 14:15:00,66.7,56.3,30.08,ESE,112,2.2,5.4,62,0.00,,,0.00,fowsr,2013-09-17 19:15:00,
2013-09-17 14:27:00,66.7,56.0,30.07,SE,135,6.0,9.8,61,0.00,,,0.00,fowsr,2013-09-17 19:27:00,
2013-09-17 14:30:00,66.4,55.6,30.07,SE,135,2.2,4.5,61,0.00,,,0.00,fowsr,2013-09-17 19:30:00,
2013-09-17 14:42:00,66.2,55.5,30.07,SE,135,4.5,6.9,61,0.00,,,0.00,fowsr,2013-09-17 19:42:00,
2013-09-17 14:45:00,66.7,56.0,30.07,SW,225,2.2,3.8,61,0.00,,,0.00,fowsr,2013-09-17 19:45:00,
2013-09-17 14:57:00,65.8,55.5,30.06,SW,225,1.6,3.1,62,0.00,,,0.00,fowsr,2013-09-17 19:57:00,
2013-09-17 15:00:00,66.0,55.6,30.06,WSW,247,3.1,3.8,62,0.00,,,0.00,fowsr,2013-09-17 20:00:00,
2013-09-17 15:12:00,66.2,55.5,30.05,SE,135,3.1,4.5,61,0.00,,,0.00,fowsr,2013-09-17 20:12:00,
2013-09-17 15:15:00,66.0,55.6,30.06,South,180,2.2,6.9,62,0.00,,,0.00,fowsr,2013-09-17 20:15:00,
2013-09-17 15:27:00,66.0,56.0,30.04,SE,135,2.2,4.5,63,0.00,,,0.00,fowsr,2013-09-17 20:27:00,
2013-09-17 15:30:00,66.2,55.5,30.05,South,180,2.2,3.8,61,0.00,,,0.00,fowsr,2013-09-17 20:30:00,
2013-09-17 15:42:00,65.5,55.1,30.04,South,180,3.1,6.0,62,0.00,,,0.00,fowsr,2013-09-17 20:42:00,
2013-09-17 15:45:00,65.8,55.8,30.04,South,180,2.2,3.8,63,0.00,,,0.00,fowsr,2013-09-17 20:45:00,
2013-09-17 15:57:00,65.1,55.1,30.03,East,90,1.6,3.1,63,0.00,,,0.00,fowsr,2013-09-17 20:57:00,
2013-09-17 16:00:00,65.5,54.8,30.04,South,180,3.1,5.4,61,0.00,,,0.00,fowsr,2013-09-17 21:00:00,
2013-09-17 16:12:00,64.8,54.8,30.03,SE,135,4.5,6.9,63,0.00,,,0.00,fowsr,2013-09-17 21:12:00,
2013-09-17 16:15:00,65.1,55.1,30.03,SW,225,2.2,5.4,63,0.00,,,0.00,fowsr,2013-09-17 21:15:00,
2013-09-17 16:27:00,63.7,53.8,30.03,ESE,112,2.2,5.4,63,0.00,,,0.00,fowsr,2013-09-17 21:27:00,
2013-09-17 16:30:00,64.6,54.0,30.03,South,180,4.5,7.6,61,0.00,,,0.00,fowsr,2013-09-17 21:30:00,
2013-09-17 16:42:00,62.4,54.2,30.03,SE,135,1.6,3.8,68,0.00,,,0.00,fowsr,2013-09-17 21:42:00,
2013-09-17 16:45:00,63.5,53.6,30.03,ESE,112,2.2,3.8,63,0.00,,,0.00,fowsr,2013-09-17 21:45:00,
2013-09-17 16:57:00,61.5,53.6,30.03,South,180,3.8,5.4,69,0.00,,,0.00,fowsr,2013-09-17 21:57:00,
2013-09-17 17:00:00,62.2,54.3,30.03,South,180,2.2,3.8,69,0.00,,,0.00,fowsr,2013-09-17 22:00:00,
2013-09-17 17:12:00,61.2,53.3,30.03,South,180,3.1,6.0,69,0.00,,,0.00,fowsr,2013-09-17 22:12:00,
2013-09-17 17:15:00,61.5,53.3,30.03,SW,225,1.6,3.1,68,0.00,,,0.00,fowsr,2013-09-17 22:15:00,
2013-09-17 17:27:00,60.4,53.8,30.02,South,180,2.2,4.5,73,0.00,,,0.00,fowsr,2013-09-17 22:27:00,
2013-09-17 17:30:00,60.8,53.3,30.03,SSE,157,3.1,6.0,70,0.00,,,0.00,fowsr,2013-09-17 22:30:00,
2013-09-17 17:42:00,59.9,53.8,30.02,South,180,1.6,3.8,75,0.00,,,0.00,fowsr,2013-09-17 22:42:00,
2013-09-17 17:45:00,60.3,53.6,30.02,South,180,2.2,3.8,73,0.00,,,0.00,fowsr,2013-09-17 22:45:00,
2013-09-17 17:57:00,59.7,53.9,30.02,SW,225,3.1,3.8,76,0.00,,,0.00,fowsr,2013-09-17 22:57:00,
2013-09-17 18:00:00,59.9,53.8,30.02,South,180,3.8,5.4,75,0.00,,,0.00,fowsr,2013-09-17 23:00:00,
2013-09-17 18:12:00,59.4,53.8,30.02,SSE,157,1.6,2.2,77,0.00,,,0.00,fowsr,2013-09-17 23:12:00,
2013-09-17 18:15:00,59.5,53.7,30.02,South,180,2.2,3.1,76,0.00,,,0.00,fowsr,2013-09-17 23:15:00,
2013-09-17 18:27:00,58.3,54.4,30.01,SE,135,1.6,3.1,83,0.00,,,0.00,fowsr,2013-09-17 23:27:00,
2013-09-17 18:30:00,59.2,53.9,30.02,SE,135,1.6,3.8,78,0.00,,,0.00,fowsr,2013-09-17 23:30:00,
2013-09-17 18:42:00,57.7,54.3,30.01,SW,225,1.6,2.2,85,0.00,,,0.00,fowsr,2013-09-17 23:42:00,
2013-09-17 18:45:00,58.3,54.4,30.01,East,90,0.7,1.6,83,0.00,,,0.00,fowsr,2013-09-17 23:45:00,
2013-09-17 18:57:00,57.4,54.5,30.00,South,180,1.6,2.2,87,0.00,,,0.00,fowsr,2013-09-17 23:57:00,
2013-09-17 19:00:00,57.7,54.3,30.00,SE,135,1.6,3.1,85,0.00,,,0.00,fowsr,2013-09-18 00:00:00,
2013-09-17 19:12:00,57.2,54.8,30.00,SE,135,0.7,1.6,89,0.00,,,0.00,fowsr,2013-09-18 00:12:00,
2013-09-17 19:15:00,57.2,54.3,30.00,South,180,1.6,2.2,87,0.00,,,0.00,fowsr,2013-09-18 00:15:00,
2013-09-17 19:27:00,57.4,55.2,29.99,SE,135,0.7,1.6,90,0.00,,,0.00,fowsr,2013-09-18 00:27:00,
2013-09-17 19:30:00,57.2,54.8,30.00,SE,135,0.7,1.6,89,0.00,,,0.00,fowsr,2013-09-18 00:30:00,
2013-09-17 19:42:00,57.4,55.2,29.99,South,180,1.6,3.1,90,0.00,,,0.00,fowsr,2013-09-18 00:42:00,
2013-09-17 19:45:00,57.4,55.2,30.00,SSE,157,0.0,0.7,90,0.00,,,0.00,fowsr,2013-09-18 00:45:00,
2013-09-17 19:57:00,57.2,55.2,29.99,SSE,157,1.6,2.2,91,0.00,,,0.00,fowsr,2013-09-18 00:57:00,
2013-09-17 20:00:00,57.4,55.2,29.99,SE,135,1.6,3.1,90,0.00,,,0.00,fowsr,2013-09-18 01:00:00,
2013-09-17 20:12:00,57.4,55.6,29.99,SW,225,0.7,2.2,92,0.00,,,0.00,fowsr,2013-09-18 01:12:00,
2013-09-17 20:15:00,57.2,55.2,29.99,South,180,0.7,2.2,91,0.00,,,0.00,fowsr,2013-09-18 01:15:00,
2013-09-17 20:27:00,57.4,55.6,29.99,SSE,157,1.6,3.1,92,0.00,,,0.00,fowsr,2013-09-18 01:27:00,
2013-09-17 20:30:00,57.4,55.6,29.99,SSW,202,1.6,3.1,92,0.00,,,0.00,fowsr,2013-09-18 01:30:00,
2013-09-17 20:42:00,57.4,55.8,29.99,East,90,0.0,1.6,93,0.00,,,0.00,fowsr,2013-09-18 01:42:00,
2013-09-17 20:45:00,57.4,55.6,29.99,South,180,1.6,3.1,92,0.00,,,0.00,fowsr,2013-09-18 01:45:00,
2013-09-17 20:57:00,57.4,55.8,29.98,SSE,157,1.6,3.1,93,0.00,,,0.00,fowsr,2013-09-18 01:57:00,
2013-09-17 21:00:00,57.4,55.8,29.99,SW,225,0.7,1.6,93,0.00,,,0.00,fowsr,2013-09-18 02:00:00,
2013-09-17 21:12:00,57.6,56.0,29.98,SE,135,0.7,2.2,93,0.00,,,0.00,fowsr,2013-09-18 02:12:00,
2013-09-17 21:15:00,57.6,56.0,29.99,SE,135,0.7,1.6,93,0.00,,,0.00,fowsr,2013-09-18 02:15:00,
2013-09-17 21:27:00,57.7,56.4,29.98,West,270,0.7,1.6,94,0.00,,,0.00,fowsr,2013-09-18 02:27:00,
2013-09-17 21:30:00,57.6,56.3,29.98,South,180,2.2,3.1,94,0.00,,,0.00,fowsr,2013-09-18 02:30:00,
2013-09-17 21:42:00,57.9,56.6,29.98,SE,135,0.7,1.6,94,0.00,,,0.00,fowsr,2013-09-18 02:42:00,
2013-09-17 21:45:00,57.7,56.4,29.97,South,180,1.6,3.1,94,0.00,,,0.00,fowsr,2013-09-18 02:45:00,
2013-09-17 21:57:00,57.9,56.6,29.98,South,180,0.7,2.2,94,0.00,,,0.00,fowsr,2013-09-18 02:57:00,
2013-09-17 22:00:00,57.9,56.6,29.98,South,180,1.6,2.2,94,0.00,,,0.00,fowsr,2013-09-18 03:00:00,
2013-09-17 22:12:00,58.1,56.8,29.97,South,180,0.7,1.6,94,0.00,,,0.00,fowsr,2013-09-18 03:12:00,
2013-09-17 22:15:00,58.1,56.8,29.98,South,180,0.0,1.6,94,0.00,,,0.00,fowsr,2013-09-18 03:15:00,
2013-09-17 22:27:00,58.3,57.0,29.97,SE,135,0.0,0.7,94,0.00,,,0.00,fowsr,2013-09-18 03:27:00,
2013-09-17 22:30:00,58.1,56.8,29.97,SW,225,1.6,2.2,94,0.00,,,0.00,fowsr,2013-09-18 03:30:00,
2013-09-17 22:42:00,58.3,57.0,29.96,SE,135,0.0,0.7,94,0.01,,,0.01,fowsr,2013-09-18 03:42:00,
2013-09-17 22:45:00,58.3,57.0,29.97,SW,225,0.7,1.6,94,0.00,,,0.00,fowsr,2013-09-18 03:45:00,
2013-09-17 22:57:00,58.5,57.4,29.96,South,180,0.0,0.7,95,0.01,,,0.01,fowsr,2013-09-18 03:57:00,
2013-09-17 23:00:00,58.3,57.2,29.96,South,180,0.7,1.6,95,0.01,,,0.01,fowsr,2013-09-18 04:00:00,
2013-09-17 23:12:00,58.5,57.4,29.96,South,180,0.0,1.6,95,0.01,,,0.01,fowsr,2013-09-18 04:12:00,
2013-09-17 23:15:00,58.5,57.4,29.96,SSE,157,0.7,1.6,95,0.01,,,0.01,fowsr,2013-09-18 04:15:00,
2013-09-17 23:27:00,58.5,57.4,29.95,South,180,0.7,1.6,95,0.01,,,0.01,fowsr,2013-09-18 04:27:00,
2013-09-17 23:30:00,58.5,57.4,29.95,South,180,1.6,2.2,95,0.01,,,0.01,fowsr,2013-09-18 04:30:00,
2013-09-17 23:42:00,58.6,57.5,29.95,SE,135,0.7,1.6,95,0.01,,,0.01,fowsr,2013-09-18 04:42:00,
2013-09-17 23:45:00,58.6,57.5,29.95,SE,135,1.6,2.2,95,0.01,,,0.01,fowsr,2013-09-18 04:45:00,
2013-09-17 23:57:00,58.8,57.7,29.95,South,180,0.7,2.2,95,0.00,,,0.01,fowsr,2013-09-18 04:57:00,